North Yarmouth, Maine
Current Conditions -  °F | °C
As of 5:51 AM on Thursday 23 Oct 2014 (Local Time) from KPWM Reporting Station
Overcast Overcast  
Wind Chill: 50°   Ceiling: 1300
Heat Index: 50°   Visibility: 7mi
Dew Point: 46°   Wind: 18mph
Humidity: 86%   Direction: 20°NNE
Pressure: 29.82"   Gusts: 28mph
Location:  43.84°N, 70.23°W
Report Text: KPWM 230951Z 02016G24KT 7SM OVC013 10/08 A2982 RMK AO2 PK WND 03032/0921 RAE47 SLP099 P0012 T01000078
Loading
Personal Weather Stations






























Interactive Weather Map
Tropical Storm Tracking
New forecast layout! Learn more

10-Day Weather Forecast

Advertisements
Track Severe Weather on mobile